createdAt,value
2023-04-25T00:00:55.557Z,18.11
2023-04-25T00:03:23.326Z,18.16
2023-04-25T00:05:51.511Z,18.17
2023-04-25T00:08:18.682Z,18.19
2023-04-25T00:10:45.865Z,18.19
2023-04-25T00:13:12.803Z,18.14
2023-04-25T00:15:39.888Z,18.10
2023-04-25T00:18:07.551Z,18.12
2023-04-25T00:20:34.572Z,18.16
2023-04-25T00:23:01.642Z,18.18
2023-04-25T00:25:28.801Z,18.20
2023-04-25T00:27:56.414Z,18.20
2023-04-25T00:30:23.373Z,18.19
2023-04-25T00:32:51.027Z,18.23
2023-04-25T00:35:18.138Z,18.22
2023-04-25T00:37:45.227Z,18.17
2023-04-25T00:40:12.487Z,18.19
2023-04-25T00:42:40.326Z,18.20
2023-04-25T00:45:08.640Z,18.21
2023-04-25T00:47:37.075Z,18.19
2023-04-25T00:50:04.215Z,18.18
2023-04-25T00:52:31.222Z,18.18
2023-04-25T00:54:58.271Z,18.17
2023-04-25T00:57:25.822Z,18.16
2023-04-25T00:59:54.194Z,18.14
2023-04-25T01:02:21.886Z,18.11
2023-04-25T01:04:49.501Z,18.09
2023-04-25T01:07:17.317Z,18.09
2023-04-25T01:09:44.762Z,18.07
2023-04-25T01:12:12.072Z,18.08
2023-04-25T01:14:39.342Z,18.09
2023-04-25T01:17:06.560Z,18.10
2023-04-25T01:19:33.712Z,18.13
2023-04-25T01:22:07.371Z,18.15
2023-04-25T01:24:34.597Z,18.17
2023-04-25T01:27:03.227Z,18.19
2023-04-25T01:29:31.692Z,18.19
2023-04-25T01:31:59.725Z,18.20
2023-04-25T01:34:26.836Z,18.21
2023-04-25T01:36:54.907Z,18.24
2023-04-25T01:39:22.868Z,18.25
2023-04-25T01:41:50.597Z,18.22
2023-04-25T01:44:17.820Z,18.19
2023-04-25T01:46:44.871Z,18.24
2023-04-25T01:49:12.112Z,18.23
2023-04-25T01:51:39.866Z,18.24
2023-04-25T01:54:06.954Z,18.25
2023-04-25T01:56:34.531Z,18.21
2023-04-25T01:59:02.917Z,18.23
2023-04-25T02:01:47.958Z,18.21
2023-04-25T02:04:22.755Z,18.22
2023-04-25T02:06:49.909Z,18.23
2023-04-25T02:09:16.852Z,18.19
2023-04-25T02:11:52.309Z,18.21
2023-04-25T02:14:35.504Z,18.18
2023-04-25T02:17:07.070Z,18.19
2023-04-25T02:19:34.112Z,18.17
2023-04-25T02:22:02.380Z,18.14
2023-04-25T02:24:29.417Z,18.14
2023-04-25T02:26:57.453Z,18.11
2023-04-25T02:29:24.563Z,18.10
2023-04-25T02:31:51.520Z,18.02
2023-04-25T02:34:18.513Z,17.98
2023-04-25T02:36:45.468Z,17.95
2023-04-25T02:39:12.661Z,17.93
2023-04-25T02:41:39.677Z,17.88
2023-04-25T02:44:06.631Z,17.85
2023-04-25T02:46:39.518Z,17.81
2023-04-25T02:49:07.841Z,17.78
2023-04-25T02:51:35.800Z,17.77
2023-04-25T02:54:03.088Z,17.70
2023-04-25T02:56:31.635Z,17.67
2023-04-25T02:58:59.407Z,17.63
2023-04-25T03:01:26.778Z,17.61
2023-04-25T03:03:54.116Z,17.59
2023-04-25T03:06:21.440Z,17.59
2023-04-25T03:08:48.453Z,17.60
2023-04-25T03:11:15.759Z,17.58
2023-04-25T03:13:44.340Z,17.51
2023-04-25T03:16:12.078Z,17.50
2023-04-25T03:18:39.132Z,17.49
2023-04-25T03:21:06.401Z,17.49
2023-04-25T03:23:33.659Z,17.50
2023-04-25T03:26:01.111Z,17.48
2023-04-25T03:28:28.841Z,17.45
2023-04-25T03:30:57.269Z,17.44
2023-04-25T03:33:24.968Z,17.38
2023-04-25T03:35:52.290Z,17.36
2023-04-25T03:38:19.347Z,17.36
2023-04-25T03:40:46.578Z,17.33
2023-04-25T03:43:34.199Z,17.32
2023-04-25T03:46:05.932Z,17.34
2023-04-25T03:48:33.128Z,17.31
2023-04-25T03:51:00.134Z,17.29
2023-04-25T03:53:27.380Z,17.26
2023-04-25T03:56:21.313Z,17.24
2023-04-25T03:58:54.660Z,17.23
2023-04-25T04:01:24.356Z,17.21
2023-04-25T04:03:51.828Z,17.17
2023-04-25T04:06:19.340Z,17.16
2023-04-25T04:08:50.523Z,17.14
2023-04-25T04:11:17.883Z,17.15
2023-04-25T04:13:45.097Z,17.05
2023-04-25T04:16:12.415Z,17.05
2023-04-25T04:18:40.057Z,17.05
2023-04-25T04:21:07.215Z,17.00
2023-04-25T04:23:39.514Z,16.97
2023-04-25T04:26:08.572Z,16.99
2023-04-25T04:28:41.083Z,16.97
2023-04-25T04:31:26.654Z,16.98
2023-04-25T04:33:53.800Z,16.96
2023-04-25T04:36:23.020Z,16.94
2023-04-25T04:38:51.286Z,16.92
2023-04-25T04:41:33.456Z,16.91
2023-04-25T04:44:23.955Z,16.87
2023-04-25T04:47:15.167Z,16.86
2023-04-25T04:50:12.051Z,16.84
2023-04-25T04:52:59.455Z,16.86
2023-04-25T04:55:47.309Z,16.87
2023-04-25T04:58:32.284Z,16.86
2023-04-25T05:01:17.308Z,16.86
2023-04-25T05:04:16.902Z,16.85
2023-04-25T05:06:59.253Z,16.85
2023-04-25T05:09:44.877Z,16.85
2023-04-25T05:12:40.916Z,16.85
2023-04-25T05:15:13.850Z,16.85
2023-04-25T05:18:04.416Z,16.85
2023-04-25T05:21:00.583Z,16.83
2023-04-25T05:23:48.054Z,16.78
2023-04-25T05:26:33.781Z,16.83
2023-04-25T05:29:20.972Z,16.85
2023-04-25T05:32:14.049Z,16.89
2023-04-25T05:34:41.293Z,16.93
2023-04-25T05:37:15.422Z,16.98
2023-04-25T05:39:54.405Z,17.04
2023-04-25T05:42:50.781Z,17.09
2023-04-25T05:45:20.869Z,17.10
2023-04-25T05:48:06.087Z,17.16
2023-04-25T05:50:44.898Z,17.23
2023-04-25T05:53:30.328Z,17.26
2023-04-25T05:56:01.289Z,17.30
2023-04-25T05:58:30.094Z,17.36
2023-04-25T06:00:59.331Z,17.41
2023-04-25T06:03:27.257Z,17.44
2023-04-25T06:05:54.486Z,17.53
2023-04-25T06:08:21.605Z,17.59
2023-04-25T06:10:48.518Z,17.66
2023-04-25T06:13:16.377Z,17.70
2023-04-25T06:15:44.560Z,17.73
2023-04-25T06:18:12.544Z,17.83
2023-04-25T06:20:39.627Z,17.95
2023-04-25T06:23:07.184Z,18.03
2023-04-25T06:25:45.693Z,18.18
2023-04-25T06:28:13.189Z,18.27
2023-04-25T06:30:41.529Z,18.34
2023-04-25T06:33:13.282Z,18.41
2023-04-25T06:35:41.379Z,18.49
2023-04-25T06:38:11.546Z,18.59
2023-04-25T06:40:40.514Z,18.71
2023-04-25T06:43:09.352Z,18.92
2023-04-25T06:45:48.715Z,19.16
2023-04-25T06:48:16.849Z,19.34
2023-04-25T06:50:43.896Z,19.67
2023-04-25T06:53:12.738Z,20.10
2023-04-25T06:55:41.532Z,20.57
2023-04-25T06:58:16.392Z,21.03
2023-04-25T07:01:09.563Z,21.97
2023-04-25T07:03:38.903Z,22.67
2023-04-25T07:06:11.067Z,23.47
2023-04-25T07:08:38.851Z,24.25
2023-04-25T07:11:05.977Z,24.77
2023-04-25T07:13:32.953Z,25.08
2023-04-25T07:16:00.970Z,25.39
2023-04-25T07:18:29.734Z,25.50
2023-04-25T07:20:56.741Z,25.50
2023-04-25T07:23:24.524Z,25.80
2023-04-25T07:25:51.715Z,26.27
2023-04-25T07:28:22.053Z,26.69
2023-04-25T07:30:49.093Z,27.60
2023-04-25T07:33:16.131Z,28.35
2023-04-25T07:35:43.127Z,29.11
2023-04-25T07:38:11.653Z,30.01
2023-04-25T07:40:39.268Z,30.78
2023-04-25T07:43:08.904Z,31.47
2023-04-25T07:45:49.583Z,31.94
2023-04-25T07:48:19.917Z,32.16
2023-04-25T07:50:48.260Z,32.30
2023-04-25T07:53:16.900Z,32.16
2023-04-25T07:55:50.201Z,32.08
2023-04-25T07:58:23.362Z,31.85
2023-04-25T08:00:55.047Z,31.37
2023-04-25T08:03:37.572Z,31.74
2023-04-25T08:06:09.727Z,32.01
2023-04-25T08:08:47.302Z,32.28
2023-04-25T08:11:18.080Z,31.10
2023-04-25T08:13:45.137Z,30.64
2023-04-25T08:16:12.914Z,30.21
2023-04-25T08:18:39.984Z,28.88
2023-04-25T08:21:07.885Z,29.11
2023-04-25T08:23:35.101Z,29.33
2023-04-25T08:26:11.196Z,29.30
2023-04-25T08:28:39.688Z,29.68
2023-04-25T08:31:07.309Z,30.40
2023-04-25T08:33:44.745Z,30.98
2023-04-25T08:36:39.206Z,31.04
2023-04-25T08:39:17.377Z,30.37
2023-04-25T08:41:58.841Z,28.48
2023-04-25T08:44:26.196Z,28.11
2023-04-25T08:46:53.651Z,27.92
2023-04-25T08:49:28.855Z,27.63
2023-04-25T08:52:00.674Z,27.21
2023-04-25T08:54:34.592Z,28.41
2023-04-25T08:57:05.074Z,28.70
2023-04-25T08:59:33.586Z,30.03
2023-04-25T09:02:02.604Z,29.42
2023-04-25T09:04:34.600Z,29.96
2023-04-25T09:07:01.665Z,29.72
2023-04-25T09:09:30.764Z,29.92
2023-04-25T09:11:59.197Z,29.65
2023-04-25T09:14:27.106Z,28.98
2023-04-25T09:17:06.220Z,28.80
2023-04-25T09:19:46.843Z,26.93
2023-04-25T09:22:27.440Z,26.32
2023-04-25T09:24:54.375Z,26.63
2023-04-25T09:27:26.330Z,26.55
2023-04-25T09:30:02.267Z,26.41
2023-04-25T09:32:40.647Z,25.73
2023-04-25T09:35:09.250Z,24.96
2023-04-25T09:37:36.348Z,24.69
2023-04-25T09:40:09.116Z,25.09
2023-04-25T09:42:49.295Z,25.12
2023-04-25T09:45:16.339Z,25.02
2023-04-25T09:47:47.685Z,24.43
2023-04-25T09:50:20.483Z,24.25
2023-04-25T09:53:07.025Z,24.00
2023-04-25T09:56:01.952Z,23.59
2023-04-25T09:58:33.095Z,23.76
2023-04-25T10:01:04.013Z,23.64
2023-04-25T10:03:41.637Z,23.15
2023-04-25T10:06:39.156Z,22.90
2023-04-25T10:09:08.889Z,23.02
2023-04-25T10:11:36.720Z,22.41
2023-04-25T10:14:04.094Z,21.85
2023-04-25T10:16:32.035Z,22.29
2023-04-25T10:18:59.196Z,22.31
2023-04-25T10:21:29.496Z,21.50
2023-04-25T10:23:56.729Z,21.78
2023-04-25T10:26:24.779Z,22.18
2023-04-25T10:29:03.204Z,22.33
2023-04-25T10:31:33.250Z,21.88
2023-04-25T10:34:03.660Z,22.34
2023-04-25T10:36:33.481Z,22.78
2023-04-25T10:39:10.133Z,22.80
2023-04-25T10:41:59.567Z,23.03
2023-04-25T10:44:33.434Z,23.23
2023-04-25T10:47:02.444Z,23.61
2023-04-25T10:49:33.565Z,23.80
2023-04-25T10:52:18.762Z,23.06
2023-04-25T10:54:52.493Z,23.00
2023-04-25T10:57:32.533Z,23.34
2023-04-25T11:00:12.959Z,23.16
2023-04-25T11:02:53.185Z,23.13
2023-04-25T11:05:50.941Z,23.21
2023-04-25T11:08:46.407Z,23.56
2023-04-25T11:11:13.924Z,23.81
2023-04-25T11:13:40.833Z,24.16
2023-04-25T11:16:12.792Z,23.83
2023-04-25T11:18:44.782Z,22.77
2023-04-25T11:21:12.912Z,21.96
2023-04-25T11:23:40.067Z,22.06
2023-04-25T11:26:07.171Z,22.18
2023-04-25T11:28:34.062Z,21.77
2023-04-25T11:31:01.327Z,20.92
2023-04-25T11:33:28.591Z,20.66
2023-04-25T11:35:59.532Z,20.16
2023-04-25T11:38:29.664Z,19.89
2023-04-25T11:40:56.955Z,19.91
2023-04-25T11:43:24.308Z,19.68
2023-04-25T11:45:52.808Z,19.30
2023-04-25T11:48:20.928Z,19.44
2023-04-25T11:50:53.092Z,19.62
2023-04-25T11:53:19.979Z,20.19
2023-04-25T11:55:47.599Z,20.24
2023-04-25T11:58:14.934Z,20.01
2023-04-25T12:00:50.205Z,19.72
2023-04-25T12:03:20.421Z,19.52
2023-04-25T12:05:47.966Z,20.34
2023-04-25T12:08:17.469Z,20.25
2023-04-25T12:10:47.294Z,20.45
2023-04-25T12:13:29.361Z,20.43
2023-04-25T12:15:57.754Z,20.63
2023-04-25T12:18:28.671Z,20.68
2023-04-25T12:20:56.429Z,20.53
2023-04-25T12:23:28.692Z,19.79
2023-04-25T12:25:55.772Z,19.96
2023-04-25T12:28:28.856Z,19.98
2023-04-25T12:30:59.920Z,20.02
2023-04-25T12:33:29.034Z,19.17
2023-04-25T12:35:57.150Z,19.34
2023-04-25T12:38:32.717Z,19.08
2023-04-25T12:41:00.086Z,18.89
2023-04-25T12:43:27.821Z,19.06
2023-04-25T12:45:56.269Z,19.30
2023-04-25T12:48:24.679Z,19.33
2023-04-25T12:50:55.247Z,19.02
2023-04-25T12:53:25.334Z,19.47
2023-04-25T12:55:52.497Z,19.52
2023-04-25T12:58:20.288Z,19.36
2023-04-25T13:00:47.659Z,19.53
2023-04-25T13:03:14.772Z,19.64
2023-04-25T13:05:42.334Z,20.04
2023-04-25T13:08:09.426Z,19.93
2023-04-25T13:10:37.327Z,19.98
2023-04-25T13:13:04.299Z,19.95
2023-04-25T13:15:31.331Z,20.05
2023-04-25T13:17:58.265Z,19.63
2023-04-25T13:20:25.295Z,19.82
2023-04-25T13:22:52.321Z,19.56
2023-04-25T13:25:19.926Z,19.78
2023-04-25T13:27:47.537Z,19.65
2023-04-25T13:30:15.016Z,19.50
2023-04-25T13:32:42.287Z,19.53
2023-04-25T13:35:12.726Z,19.37
2023-04-25T13:37:40.381Z,19.20
2023-04-25T13:40:10.569Z,19.55
2023-04-25T13:42:38.728Z,19.89
2023-04-25T13:45:06.559Z,19.82
2023-04-25T13:47:33.592Z,19.19
2023-04-25T13:50:01.381Z,18.82
2023-04-25T13:52:28.519Z,19.25
2023-04-25T13:54:55.611Z,19.57
2023-04-25T13:57:22.656Z,19.24
2023-04-25T13:59:49.549Z,19.18
2023-04-25T14:02:16.641Z,19.18
2023-04-25T14:04:43.896Z,19.12
2023-04-25T14:07:12.050Z,19.38
2023-04-25T14:09:39.339Z,19.16
2023-04-25T14:12:07.108Z,19.32
2023-04-25T14:14:34.183Z,19.01
2023-04-25T14:17:01.134Z,19.28
2023-04-25T14:19:28.786Z,19.26
2023-04-25T14:21:56.003Z,19.69
2023-04-25T14:24:23.101Z,19.87
2023-04-25T14:26:50.161Z,19.92
2023-04-25T14:29:17.060Z,19.89
2023-04-25T14:31:44.050Z,19.64
2023-04-25T14:34:11.716Z,19.26
2023-04-25T14:36:38.722Z,18.92
2023-04-25T14:39:08.650Z,18.91
2023-04-25T14:41:35.739Z,19.04
2023-04-25T14:44:02.641Z,18.93
2023-04-25T14:46:30.312Z,19.03
2023-04-25T14:48:57.444Z,18.88
2023-04-25T14:51:24.713Z,18.83
2023-04-25T14:53:52.244Z,18.86
2023-04-25T14:56:20.051Z,18.72
2023-04-25T14:58:47.310Z,18.70
2023-04-25T15:01:15.096Z,18.71
2023-04-25T15:03:42.650Z,18.71
2023-04-25T15:06:10.082Z,18.76
2023-04-25T15:08:37.275Z,18.80
2023-04-25T15:11:04.540Z,19.13
2023-04-25T15:13:32.025Z,19.32
2023-04-25T15:15:59.052Z,19.30
2023-04-25T15:18:26.337Z,18.98
2023-04-25T15:20:54.482Z,19.00
2023-04-25T15:23:22.790Z,19.04
2023-04-25T15:25:52.296Z,18.86
2023-04-25T15:28:19.945Z,18.73
2023-04-25T15:30:47.006Z,18.69
2023-04-25T15:33:14.618Z,18.87
2023-04-25T15:35:41.801Z,18.85
2023-04-25T15:38:09.667Z,18.81
2023-04-25T15:40:37.152Z,18.54
2023-04-25T15:43:06.374Z,18.44
2023-04-25T15:45:33.684Z,18.44
2023-04-25T15:48:02.127Z,18.43
2023-04-25T15:50:29.989Z,18.52
2023-04-25T15:52:58.106Z,18.43
2023-04-25T15:55:26.984Z,18.53
2023-04-25T15:57:54.336Z,18.56
2023-04-25T16:00:22.524Z,18.64
2023-04-25T16:02:49.718Z,18.64
2023-04-25T16:05:17.509Z,18.62
2023-04-25T16:07:46.744Z,18.72
2023-04-25T16:10:20.147Z,18.76
2023-04-25T16:12:50.730Z,18.96
2023-04-25T16:15:18.196Z,18.92
2023-04-25T16:17:45.877Z,18.41
2023-04-25T16:20:13.687Z,18.16
2023-04-25T16:22:41.837Z,18.35
2023-04-25T16:25:09.777Z,18.15
2023-04-25T16:27:40.441Z,18.39
2023-04-25T16:30:09.493Z,18.66
2023-04-25T16:32:38.041Z,18.71
2023-04-25T16:35:05.579Z,18.73
2023-04-25T16:37:32.743Z,18.67
2023-04-25T16:39:59.833Z,18.52
2023-04-25T16:42:26.963Z,18.57
2023-04-25T16:44:53.918Z,18.56
2023-04-25T16:47:21.235Z,18.60
2023-04-25T16:49:48.217Z,18.63
2023-04-25T16:52:16.413Z,18.50
2023-04-25T16:54:43.766Z,18.33
2023-04-25T16:57:11.527Z,18.39
2023-04-25T16:59:41.640Z,18.65
2023-04-25T17:02:13.018Z,18.63
2023-04-25T17:04:40.934Z,18.56
2023-04-25T17:07:09.067Z,18.45
2023-04-25T17:09:36.432Z,18.48
2023-04-25T17:12:04.573Z,18.61
2023-04-25T17:14:33.349Z,18.57
2023-04-25T17:17:00.404Z,18.50
2023-04-25T17:19:28.584Z,18.56
2023-04-25T17:21:56.229Z,18.17
2023-04-25T17:24:23.205Z,18.30
2023-04-25T17:26:50.220Z,18.20
2023-04-25T17:29:17.596Z,18.49
2023-04-25T17:31:44.909Z,18.61
2023-04-25T17:34:16.571Z,18.62
2023-04-25T17:36:46.403Z,18.59
2023-04-25T17:39:17.528Z,18.72
2023-04-25T17:41:45.239Z,18.77
2023-04-25T17:44:12.407Z,18.60
2023-04-25T17:46:39.546Z,18.40
2023-04-25T17:49:06.747Z,18.34
2023-04-25T17:51:33.794Z,18.18
2023-04-25T17:54:00.796Z,18.03
2023-04-25T17:56:28.063Z,17.99
2023-04-25T17:58:56.707Z,17.83
2023-04-25T18:01:23.729Z,17.83
2023-04-25T18:03:51.839Z,17.76
2023-04-25T18:06:19.431Z,17.82
2023-04-25T18:08:47.317Z,17.87
2023-04-25T18:11:14.444Z,17.79
2023-04-25T18:13:41.880Z,17.71
2023-04-25T18:16:08.954Z,17.60
2023-04-25T18:18:36.881Z,17.73
2023-04-25T18:21:07.036Z,17.73
2023-04-25T18:23:34.292Z,17.63
2023-04-25T18:26:02.791Z,17.63
2023-04-25T18:28:29.954Z,17.65
2023-04-25T18:30:57.045Z,17.72
2023-04-25T18:33:24.026Z,17.57
2023-04-25T18:35:58.152Z,17.54
2023-04-25T18:38:34.907Z,17.60
2023-04-25T18:41:18.274Z,17.63
2023-04-25T18:43:50.840Z,17.59
2023-04-25T18:46:22.379Z,17.55
2023-04-25T18:48:50.565Z,17.55
2023-04-25T18:51:17.714Z,17.54
2023-04-25T18:53:44.759Z,17.60
2023-04-25T18:56:11.780Z,17.62
2023-04-25T18:58:38.672Z,17.75
2023-04-25T19:01:05.959Z,17.77
2023-04-25T19:03:33.515Z,17.73
2023-04-25T19:06:00.706Z,17.74
2023-04-25T19:08:28.365Z,17.81
2023-04-25T19:10:55.305Z,17.82
2023-04-25T19:13:22.362Z,17.84
2023-04-25T19:15:49.649Z,17.90
2023-04-25T19:18:17.465Z,17.99
2023-04-25T19:20:44.526Z,18.01
2023-04-25T19:23:11.489Z,17.95
2023-04-25T19:25:38.441Z,17.98
2023-04-25T19:28:07.461Z,17.93
2023-04-25T19:30:34.601Z,17.91
2023-04-25T19:33:01.745Z,17.88
2023-04-25T19:35:31.005Z,17.91
2023-04-25T19:37:58.267Z,17.98
2023-04-25T19:40:26.197Z,17.85
2023-04-25T19:42:53.210Z,17.88
2023-04-25T19:45:21.004Z,17.90
2023-04-25T19:47:50.563Z,17.91
2023-04-25T19:50:17.963Z,17.83
2023-04-25T19:52:45.026Z,17.90
2023-04-25T19:55:12.033Z,17.84
2023-04-25T19:57:39.153Z,17.81
2023-04-25T20:00:12.202Z,17.81
2023-04-25T20:02:39.852Z,17.81
2023-04-25T20:05:08.609Z,17.74
2023-04-25T20:07:36.182Z,17.74
2023-04-25T20:10:04.372Z,17.67
2023-04-25T20:12:31.611Z,17.58
2023-04-25T20:15:02.318Z,17.61
2023-04-25T20:17:31.446Z,17.71
2023-04-25T20:19:58.426Z,17.72
2023-04-25T20:22:25.789Z,17.66
2023-04-25T20:24:52.952Z,17.62
2023-04-25T20:27:21.555Z,17.63
2023-04-25T20:29:48.489Z,17.65
2023-04-25T20:32:15.765Z,17.56
2023-04-25T20:34:42.858Z,17.55
2023-04-25T20:37:09.939Z,17.55
2023-04-25T20:39:36.918Z,17.55
2023-04-25T20:42:04.248Z,17.61
2023-04-25T20:44:32.136Z,17.67
2023-04-25T20:46:59.073Z,17.70
2023-04-25T20:49:26.777Z,17.77
2023-04-25T20:51:54.005Z,17.81
2023-04-25T20:54:21.055Z,17.83
2023-04-25T20:56:51.178Z,17.90
2023-04-25T20:59:18.324Z,17.91
2023-04-25T21:01:45.264Z,17.85
2023-04-25T21:04:15.454Z,17.88
2023-04-25T21:06:50.427Z,17.88
2023-04-25T21:09:18.830Z,17.88
2023-04-25T21:11:48.678Z,17.93
2023-04-25T21:14:16.643Z,17.98
2023-04-25T21:16:43.838Z,17.98
2023-04-25T21:19:11.277Z,18.00
2023-04-25T21:21:44.595Z,17.93
2023-04-25T21:24:14.319Z,17.98
2023-04-25T21:26:47.513Z,18.01
2023-04-25T21:29:17.886Z,17.98
2023-04-25T21:31:46.694Z,18.03
2023-04-25T21:34:13.680Z,18.04
2023-04-25T21:36:41.521Z,18.01
2023-04-25T21:39:08.507Z,18.04
2023-04-25T21:41:37.679Z,18.07
2023-04-25T21:44:04.819Z,18.12
2023-04-25T21:46:31.767Z,18.13
2023-04-25T21:48:58.939Z,18.11
2023-04-25T21:51:26.020Z,18.19
2023-04-25T21:53:53.106Z,18.15
2023-04-25T21:56:20.127Z,18.16
2023-04-25T21:58:47.324Z,18.16
2023-04-25T22:01:16.011Z,18.18
2023-04-25T22:03:43.110Z,18.22
2023-04-25T22:06:10.421Z,18.24
2023-04-25T22:08:37.638Z,18.24
2023-04-25T22:11:07.386Z,18.21
2023-04-25T22:13:34.388Z,18.25
2023-04-25T22:16:01.524Z,18.27
2023-04-25T22:18:29.202Z,18.26
2023-04-25T22:20:56.475Z,18.29
2023-04-25T22:23:24.036Z,18.30
2023-04-25T22:25:51.604Z,18.32
2023-04-25T22:28:18.510Z,18.35
2023-04-25T22:30:45.464Z,18.32
2023-04-25T22:33:12.542Z,18.26
2023-04-25T22:35:39.512Z,18.19
2023-04-25T22:38:06.513Z,18.17
2023-04-25T22:40:33.682Z,18.15
2023-04-25T22:43:00.866Z,18.18
2023-04-25T22:45:28.017Z,18.12
2023-04-25T22:47:55.155Z,18.15
2023-04-25T22:50:22.256Z,18.18
2023-04-25T22:52:49.232Z,18.17
2023-04-25T22:55:16.258Z,18.17
2023-04-25T22:57:43.294Z,18.16
2023-04-25T23:00:20.079Z,18.19
2023-04-25T23:02:49.035Z,18.11
2023-04-25T23:05:16.234Z,18.17
2023-04-25T23:07:45.130Z,18.17
2023-04-25T23:10:13.278Z,18.17
2023-04-25T23:12:40.418Z,18.16
2023-04-25T23:15:08.374Z,18.16
2023-04-25T23:17:35.458Z,18.10
2023-04-25T23:20:05.665Z,18.11
2023-04-25T23:22:32.671Z,18.09
2023-04-25T23:24:59.593Z,18.08
2023-04-25T23:27:27.263Z,18.07
2023-04-25T23:29:55.478Z,18.07
2023-04-25T23:32:23.262Z,18.05
2023-04-25T23:34:50.225Z,18.04
2023-04-25T23:37:17.339Z,18.04
2023-04-25T23:39:49.409Z,18.03
2023-04-25T23:42:17.347Z,17.99
2023-04-25T23:44:44.358Z,17.98
2023-04-25T23:47:13.784Z,17.97
2023-04-25T23:49:41.160Z,17.97
2023-04-25T23:52:08.350Z,17.96
2023-04-25T23:54:35.500Z,17.95
2023-04-25T23:57:04.519Z,17.94
2023-04-25T23:59:31.800Z,17.92
